METAR AND TAF INFORMATION
METAR FOR LSZB
ADDS - METARS form results

(1957 UTC 21 March 2019)
Data provider http://aviationweather.gov/metar/data/
 
METAR text: LSZB 211950Z AUTO 13002KT CAVOK 02/M01 Q1030
Conditions at: LSZB (BERN/BELP , CH) observed 1950 UTC 21 March 2019
Temperature: 2.0°C (36°F)
Dewpoint: -1.0°C (30°F) [RH = 80%]
Pressure (altimeter): 30.41 inches Hg (1030.0 mb)
Winds: from the SE (130 degrees) at 2 MPH (2 knots; 1.0 m/s)
Visibility: 6 or more miles (10+ km)
Ceiling: ceiling and visibility are OK
Clouds: unknown
Weather: no significant weather observed at this time

METAR text: LSZB 211920Z 00000KT CAVOK 04/M00 Q1029 NOSIG
Conditions at: LSZB (BERN/BELP , CH) observed 1920 UTC 21 March 2019
Temperature: 4.0°C (39°F)
Dewpoint: 0.0°C (32°F) [RH = 75%]
Pressure (altimeter): 30.38 inches Hg (1029.0 mb)
Winds: calm
Visibility: 6 or more miles (10+ km)
Ceiling: ceiling and visibility are OK
Clouds: unknown
Weather: no significant weather observed at this time

Forecast for: LSZB (BERN/BELP , CH)
Text: TAF LSZB 211425Z 2115/2124 VRB03KT CAVOK
Forecast period: 1500 UTC 21 March 2019 to 0000 UTC 22 March 2019
Forecast type: FROM: standard forecast or significant change
Winds: variable direction winds at 3 MPH (3 knots; 1.5 m/s)
Visibility: 6 or more miles 10+ km)
Ceiling: unknown
Clouds: missing
Weather: NSW  (no significant weather)

 AIRPORT MAP

 RUNWAY INFORMATION
Runway 14 Runway length 4954 ft Runway width 98 ft
Runway elevation 1668 ft Runway displaced threshold 656 ft Runway heading 140
Runway 32 Runway length 4954 ft Runway width 98 ft
Runway elevation 1674 ft Runway displaced threshold 360 ft Runway heading 320
Runway 14L Runway length 2133 ft Runway width 98 ft
Runway elevation 0 ft Runway displaced threshold 0 ft Runway heading 140
Runway 32R Runway length 2133 ft Runway width 98 ft
Runway elevation 0 ft Runway displaced threshold 0 ft Runway heading 320
Runway 14R Runway length 2125 ft Runway width 98 ft
Runway elevation 0 ft Runway displaced threshold 0 ft Runway heading 140
Runway 32L Runway length 2125 ft Runway width 98 ft
Runway elevation 0 ft Runway displaced threshold 0 ft Runway heading 320

 AIRPORT FREQUENCIES
Type A/D Name APP/DEP Frequency 127.325 MHZ
Type ATIS Name ATIS Frequency 125.125 MHZ
Type MISC Name GLIDER Frequency 123.4 MHZ
Type OPS Name ALPAR Frequency 135.75 MHZ
Type TWR Name TWR Frequency 121.025 MHZ

 AIRPORT NEAR NAVIGATION AIDS
Type NDB Name Bern Frequency 335 KHZ
Type NDB Name Muri Frequency 312 KHZ
Type NDB Name Schupberg Frequency 357 KHZ